sensor_id;sensor_type;location;lat;lon;timestamp;pressure;altitude;pressure_sealevel;temperature
74915;BMP280;63475;45.140;-75.616;2022-10-16T00:00:34;100241.13;;;10.58
74915;BMP280;63475;45.140;-75.616;2022-10-16T00:01:35;100252.47;;;10.59
74915;BMP280;63475;45.140;-75.616;2022-10-16T00:02:36;100253.59;;;10.58
74915;BMP280;63475;45.140;-75.616;2022-10-16T00:03:38;100246.81;;;10.57
74915;BMP280;63475;45.140;-75.616;2022-10-16T00:04:39;100240.13;;;10.48
74915;BMP280;63475;45.140;-75.616;2022-10-16T00:05:41;100248.81;;;10.49
74915;BMP280;63475;45.140;-75.616;2022-10-16T00:06:43;100247.34;;;10.44
74915;BMP280;63475;45.140;-75.616;2022-10-16T00:07:44;100239.84;;;10.43
74915;BMP280;63475;45.140;-75.616;2022-10-16T00:08:45;100248.16;;;10.41
74915;BMP280;63475;45.140;-75.616;2022-10-16T00:09:46;100248.91;;;10.38
74915;BMP280;63475;45.140;-75.616;2022-10-16T00:10:47;100249.66;;;10.39
74915;BMP280;63475;45.140;-75.616;2022-10-16T00:11:47;100255.31;;;10.37
74915;BMP280;63475;45.140;-75.616;2022-10-16T00:12:48;100253.81;;;10.36
74915;BMP280;63475;45.140;-75.616;2022-10-16T00:13:51;100255.38;;;10.34
74915;BMP280;63475;45.140;-75.616;2022-10-16T00:14:52;100252.78;;;10.30
74915;BMP280;63475;45.140;-75.616;2022-10-16T00:15:56;100257.69;;;10.28
74915;BMP280;63475;45.140;-75.616;2022-10-16T00:16:57;100266.41;;;10.25
74915;BMP280;63475;45.140;-75.616;2022-10-16T00:17:58;100263.81;;;10.22
74915;BMP280;63475;45.140;-75.616;2022-10-16T00:18:59;100261.22;;;10.18
74915;BMP280;63475;45.140;-75.616;2022-10-16T00:20:00;100265.78;;;10.14
74915;BMP280;63475;45.140;-75.616;2022-10-16T00:21:05;100262.09;;;10.08
74915;BMP280;63475;45.140;-75.616;2022-10-16T00:22:06;100273.41;;;10.05
74915;BMP280;63475;45.140;-75.616;2022-10-16T00:23:07;100276.06;;;10.05
74915;BMP280;63475;45.140;-75.616;2022-10-16T00:24:09;100279.06;;;10.03
74915;BMP280;63475;45.140;-75.616;2022-10-16T00:25:10;100277.97;;;10.01
74915;BMP280;63475;45.140;-75.616;2022-10-16T00:26:13;100282.53;;;9.97
74915;BMP280;63475;45.140;-75.616;2022-10-16T00:27:15;100285.94;;;9.94
74915;BMP280;63475;45.140;-75.616;2022-10-16T00:28:15;100288.63;;;9.90
74915;BMP280;63475;45.140;-75.616;2022-10-16T00:29:16;100295.03;;;9.89
74915;BMP280;63475;45.140;-75.616;2022-10-16T00:30:17;100294.31;;;9.85
74915;BMP280;63475;45.140;-75.616;2022-10-16T00:31:20;100293.94;;;9.87
74915;BMP280;63475;45.140;-75.616;2022-10-16T00:32:21;100294.38;;;9.82
74915;BMP280;63475;45.140;-75.616;2022-10-16T00:33:22;100297.38;;;9.80
74915;BMP280;63475;45.140;-75.616;2022-10-16T00:34:23;100287.97;;;9.79
74915;BMP280;63475;45.140;-75.616;2022-10-16T00:35:24;100293.25;;;9.79
74915;BMP280;63475;45.140;-75.616;2022-10-16T00:36:26;100285.00;;;9.73
74915;BMP280;63475;45.140;-75.616;2022-10-16T00:37:27;100284.63;;;9.75
74915;BMP280;63475;45.140;-75.616;2022-10-16T00:38:28;100286.53;;;9.74
74915;BMP280;63475;45.140;-75.616;2022-10-16T00:39:29;100280.13;;;9.72
74915;BMP280;63475;45.140;-75.616;2022-10-16T00:40:30;100288.03;;;9.68
74915;BMP280;63475;45.140;-75.616;2022-10-16T00:41:32;100288.41;;;9.67
74915;BMP280;63475;45.140;-75.616;2022-10-16T00:42:33;100294.84;;;9.66
74915;BMP280;63475;45.140;-75.616;2022-10-16T00:43:54;100295.56;;;9.66
74915;BMP280;63475;45.140;-75.616;2022-10-16T00:44:57;100293.75;;;9.63
74915;BMP280;63475;45.140;-75.616;2022-10-16T00:45:59;100300.53;;;9.61
74915;BMP280;63475;45.140;-75.616;2022-10-16T00:47:00;100293.38;;;9.58
74915;BMP280;63475;45.140;-75.616;2022-10-16T00:48:01;100297.56;;;9.55
74915;BMP280;63475;45.140;-75.616;2022-10-16T00:49:15;100293.44;;;9.54
74915;BMP280;63475;45.140;-75.616;2022-10-16T00:50:37;100297.59;;;9.52
74915;BMP280;63475;45.140;-75.616;2022-10-16T00:51:41;100295.75;;;9.45
74915;BMP280;63475;45.140;-75.616;2022-10-16T00:52:46;100299.91;;;9.46
74915;BMP280;63475;45.140;-75.616;2022-10-16T00:53:48;100292.38;;;9.41
74915;BMP280;63475;45.140;-75.616;2022-10-16T00:54:50;100302.56;;;9.43
74915;BMP280;63475;45.140;-75.616;2022-10-16T00:55:52;100298.78;;;9.40
74915;BMP280;63475;45.140;-75.616;2022-10-16T00:56:54;100300.28;;;9.41
74915;BMP280;63475;45.140;-75.616;2022-10-16T00:57:56;100305.63;;;9.37
74915;BMP280;63475;45.140;-75.616;2022-10-16T00:58:58;100313.16;;;9.39
74915;BMP280;63475;45.140;-75.616;2022-10-16T01:00:00;100312.78;;;9.37
74915;BMP280;63475;45.140;-75.616;2022-10-16T01:01:01;100307.84;;;9.35
74915;BMP280;63475;45.140;-75.616;2022-10-16T01:02:03;100310.88;;;9.34
74915;BMP280;63475;45.140;-75.616;2022-10-16T01:03:26;100311.63;;;9.31
74915;BMP280;63475;45.140;-75.616;2022-10-16T01:04:32;100310.50;;;9.32
74915;BMP280;63475;45.140;-75.616;2022-10-16T01:05:38;100322.19;;;9.31
74915;BMP280;63475;45.140;-75.616;2022-10-16T01:06:51;100318.41;;;9.32
74915;BMP280;63475;45.140;-75.616;2022-10-16T01:09:13;100319.97;;;9.29
74915;BMP280;63475;45.140;-75.616;2022-10-16T01:13:07;100326.00;;;9.26
74915;BMP280;63475;45.140;-75.616;2022-10-16T01:14:19;100325.63;;;9.24
74915;BMP280;63475;45.140;-75.616;2022-10-16T01:16:54;100336.53;;;9.26
74915;BMP280;63475;45.140;-75.616;2022-10-16T01:19:12;100338.81;;;9.24
74915;BMP280;63475;45.140;-75.616;2022-10-16T01:20:24;100342.59;;;9.20
74915;BMP280;63475;45.140;-75.616;2022-10-16T01:21:29;100334.69;;;9.20
74915;BMP280;63475;45.140;-75.616;2022-10-16T01:22:43;100340.72;;;9.20
74915;BMP280;63475;45.140;-75.616;2022-10-16T01:23:59;100347.13;;;9.19
74915;BMP280;63475;45.140;-75.616;2022-10-16T01:25:05;100350.91;;;9.18
74915;BMP280;63475;45.140;-75.616;2022-10-16T01:27:30;100354.69;;;9.14
74915;BMP280;63475;45.140;-75.616;2022-10-16T01:28:53;100355.09;;;9.09
74915;BMP280;63475;45.140;-75.616;2022-10-16T01:30:18;100356.97;;;9.04
74915;BMP280;63475;45.140;-75.616;2022-10-16T01:31:24;100370.53;;;8.99
74915;BMP280;63475;45.140;-75.616;2022-10-16T01:34:02;100382.59;;;8.97
74915;BMP280;63475;45.140;-75.616;2022-10-16T01:35:16;100373.94;;;8.93
74915;BMP280;63475;45.140;-75.616;2022-10-16T01:36:22;100384.88;;;8.91
74915;BMP280;63475;45.140;-75.616;2022-10-16T01:38:52;100381.53;;;8.77
74915;BMP280;63475;45.140;-75.616;2022-10-16T01:39:58;100389.06;;;8.78
74915;BMP280;63475;45.140;-75.616;2022-10-16T01:41:07;100392.06;;;8.77
74915;BMP280;63475;45.140;-75.616;2022-10-16T01:42:12;100398.47;;;8.79
74915;BMP280;63475;45.140;-75.616;2022-10-16T01:44:35;100390.19;;;8.74
74915;BMP280;63475;45.140;-75.616;2022-10-16T01:45:06;100393.94;;;8.73
74915;BMP280;63475;45.140;-75.616;2022-10-16T01:46:09;100403.00;;;8.68
74915;BMP280;63475;45.140;-75.616;2022-10-16T01:47:13;100395.09;;;8.61
74915;BMP280;63475;45.140;-75.616;2022-10-16T01:48:17;100403.00;;;8.54
74915;BMP280;63475;45.140;-75.616;2022-10-16T01:49:20;100404.91;;;8.50
74915;BMP280;63475;45.140;-75.616;2022-10-16T01:50:24;100405.28;;;8.48
74915;BMP280;63475;45.140;-75.616;2022-10-16T01:51:26;100407.91;;;8.45
74915;BMP280;63475;45.140;-75.616;2022-10-16T01:52:29;100392.84;;;8.35
74915;BMP280;63475;45.140;-75.616;2022-10-16T01:53:31;100411.66;;;8.44
74915;BMP280;63475;45.140;-75.616;2022-10-16T01:54:35;100415.81;;;8.41
74915;BMP280;63475;45.140;-75.616;2022-10-16T01:55:40;100412.06;;;8.42
74915;BMP280;63475;45.140;-75.616;2022-10-16T01:56:46;100416.56;;;8.42
74915;BMP280;63475;45.140;-75.616;2022-10-16T01:57:50;100419.56;;;8.44
74915;BMP280;63475;45.140;-75.616;2022-10-16T01:58:57;100424.81;;;8.44
74915;BMP280;63475;45.140;-75.616;2022-10-16T02:00:04;100420.31;;;8.41
74915;BMP280;63475;45.140;-75.616;2022-10-16T02:01:06;100436.88;;;8.38
74915;BMP280;63475;45.140;-75.616;2022-10-16T02:02:09;100430.47;;;8.31
74915;BMP280;63475;45.140;-75.616;2022-10-16T02:03:13;100430.09;;;8.29
74915;BMP280;63475;45.140;-75.616;2022-10-16T02:05:51;100436.09;;;8.26
74915;BMP280;63475;45.140;-75.616;2022-10-16T02:06:50;100437.22;;;8.25
74915;BMP280;63475;45.140;-75.616;2022-10-16T02:07:51;100432.34;;;8.20
74915;BMP280;63475;45.140;-75.616;2022-10-16T02:08:53;100428.94;;;8.20
74915;BMP280;63475;45.140;-75.616;2022-10-16T02:09:54;100430.06;;;8.15
74915;BMP280;63475;45.140;-75.616;2022-10-16T02:10:57;100431.56;;;8.16
74915;BMP280;63475;45.140;-75.616;2022-10-16T02:11:59;100437.22;;;8.18
74915;BMP280;63475;45.140;-75.616;2022-10-16T02:13:39;100436.47;;;8.18
74915;BMP280;63475;45.140;-75.616;2022-10-16T02:14:42;100438.34;;;8.17
74915;BMP280;63475;45.140;-75.616;2022-10-16T02:15:43;100435.72;;;8.17
74915;BMP280;63475;45.140;-75.616;2022-10-16T02:16:46;100436.84;;;8.16
74915;BMP280;63475;45.140;-75.616;2022-10-16T02:17:47;100439.84;;;8.15
74915;BMP280;63475;45.140;-75.616;2022-10-16T02:18:48;100448.13;;;8.17
74915;BMP280;63475;45.140;-75.616;2022-10-16T02:19:51;100436.84;;;8.16
74915;BMP280;63475;45.140;-75.616;2022-10-16T02:21:00;100448.50;;;8.15
74915;BMP280;63475;45.140;-75.616;2022-10-16T02:22:04;100443.22;;;8.12
74915;BMP280;63475;45.140;-75.616;2022-10-16T02:23:10;100455.63;;;8.15
74915;BMP280;63475;45.140;-75.616;2022-10-16T02:24:28;100443.59;;;8.14
74915;BMP280;63475;45.140;-75.616;2022-10-16T02:25:37;100460.91;;;8.18
74915;BMP280;63475;45.140;-75.616;2022-10-16T02:27:14;100457.13;;;8.16
74915;BMP280;63475;45.140;-75.616;2022-10-16T02:28:19;100457.16;;;8.19
74915;BMP280;63475;45.140;-75.616;2022-10-16T02:29:25;100456.78;;;8.17
74915;BMP280;63475;45.140;-75.616;2022-10-16T02:30:36;100462.03;;;8.17
74915;BMP280;63475;45.140;-75.616;2022-10-16T02:31:43;100460.53;;;8.16
74915;BMP280;63475;45.140;-75.616;2022-10-16T02:32:46;100457.50;;;8.14
74915;BMP280;63475;45.140;-75.616;2022-10-16T02:33:49;100454.88;;;8.14
74915;BMP280;63475;45.140;-75.616;2022-10-16T02:34:52;100458.63;;;8.13
74915;BMP280;63475;45.140;-75.616;2022-10-16T02:35:54;100459.78;;;8.16
74915;BMP280;63475;45.140;-75.616;2022-10-16T02:36:57;100454.13;;;8.10
74915;BMP280;63475;45.140;-75.616;2022-10-16T02:37:59;100444.72;;;8.09
74915;BMP280;63475;45.140;-75.616;2022-10-16T02:39:00;100449.25;;;8.09
74915;BMP280;63475;45.140;-75.616;2022-10-16T02:40:02;100458.25;;;8.08
74915;BMP280;63475;45.140;-75.616;2022-10-16T02:41:07;100455.25;;;8.09
74915;BMP280;63475;45.140;-75.616;2022-10-16T02:42:15;100453.38;;;8.06
74915;BMP280;63475;45.140;-75.616;2022-10-16T02:43:16;100462.00;;;8.07
74915;BMP280;63475;45.140;-75.616;2022-10-16T02:44:17;100454.88;;;8.04
74915;BMP280;63475;45.140;-75.616;2022-10-16T02:45:18;100462.38;;;8.05
74915;BMP280;63475;45.140;-75.616;2022-10-16T02:46:19;100453.38;;;8.06
74915;BMP280;63475;45.140;-75.616;2022-10-16T02:47:20;100457.13;;;8.05
74915;BMP280;63475;45.140;-75.616;2022-10-16T02:48:21;100457.88;;;8.06
74915;BMP280;63475;45.140;-75.616;2022-10-16T02:49:22;100458.25;;;8.04
74915;BMP280;63475;45.140;-75.616;2022-10-16T02:50:23;100452.59;;;8.02
74915;BMP280;63475;45.140;-75.616;2022-10-16T02:51:25;100457.88;;;8.02
74915;BMP280;63475;45.140;-75.616;2022-10-16T02:52:26;100465.00;;;8.02
74915;BMP280;63475;45.140;-75.616;2022-10-16T02:53:27;100456.34;;;8.01
74915;BMP280;63475;45.140;-75.616;2022-10-16T02:54:28;100461.63;;;7.97
74915;BMP280;63475;45.140;-75.616;2022-10-16T02:55:29;100457.06;;;7.94
74915;BMP280;63475;45.140;-75.616;2022-10-16T02:56:30;100456.38;;;7.97
74915;BMP280;63475;45.140;-75.616;2022-10-16T02:57:31;100462.78;;;8.00
74915;BMP280;63475;45.140;-75.616;2022-10-16T02:58:32;100458.59;;;7.95
74915;BMP280;63475;45.140;-75.616;2022-10-16T02:59:33;100459.75;;;7.98
74915;BMP280;63475;45.140;-75.616;2022-10-16T03:00:34;100457.84;;;7.95
74915;BMP280;63475;45.140;-75.616;2022-10-16T03:01:35;100463.13;;;7.99
74915;BMP280;63475;45.140;-75.616;2022-10-16T03:02:38;100461.25;;;7.99
74915;BMP280;63475;45.140;-75.616;2022-10-16T03:03:39;100458.59;;;7.95
74915;BMP280;63475;45.140;-75.616;2022-10-16T03:04:40;100465.34;;;7.96
74915;BMP280;63475;45.140;-75.616;2022-10-16T03:05:43;100468.75;;;7.97
74915;BMP280;63475;45.140;-75.616;2022-10-16T03:06:46;100459.72;;;7.94
74915;BMP280;63475;45.140;-75.616;2022-10-16T03:07:46;100462.31;;;7.91
74915;BMP280;63475;45.140;-75.616;2022-10-16T03:08:47;100464.97;;;7.94
74915;BMP280;63475;45.140;-75.616;2022-10-16T03:09:48;100463.84;;;7.92
74915;BMP280;63475;45.140;-75.616;2022-10-16T03:10:50;100467.59;;;7.91
74915;BMP280;63475;45.140;-75.616;2022-10-16T03:11:50;100462.69;;;7.89
74915;BMP280;63475;45.140;-75.616;2022-10-16T03:12:52;100471.34;;;7.90
74915;BMP280;63475;45.140;-75.616;2022-10-16T03:13:53;100459.72;;;7.87
74915;BMP280;63475;45.140;-75.616;2022-10-16T03:14:55;100458.94;;;7.83
74915;BMP280;63475;45.140;-75.616;2022-10-16T03:15:57;100465.72;;;7.88
74915;BMP280;63475;45.140;-75.616;2022-10-16T03:16:57;100468.34;;;7.88
74915;BMP280;63475;45.140;-75.616;2022-10-16T03:17:58;100458.56;;;7.85
74915;BMP280;63475;45.140;-75.616;2022-10-16T03:19:08;100461.97;;;7.89
74915;BMP280;63475;45.140;-75.616;2022-10-16T03:20:09;100457.81;;;7.88
74915;BMP280;63475;45.140;-75.616;2022-10-16T03:21:11;100459.34;;;7.89
74915;BMP280;63475;45.140;-75.616;2022-10-16T03:22:11;100461.97;;;7.89
74915;BMP280;63475;45.140;-75.616;2022-10-16T03:23:12;100463.09;;;7.88
74915;BMP280;63475;45.140;-75.616;2022-10-16T03:24:13;100463.09;;;7.88
74915;BMP280;63475;45.140;-75.616;2022-10-16T03:25:14;100461.94;;;7.85
74915;BMP280;63475;45.140;-75.616;2022-10-16T03:26:15;100470.97;;;7.88
74915;BMP280;63475;45.140;-75.616;2022-10-16T03:27:16;100467.59;;;7.87
74915;BMP280;63475;45.140;-75.616;2022-10-16T03:28:17;100467.22;;;7.85
74915;BMP280;63475;45.140;-75.616;2022-10-16T03:29:18;100468.34;;;7.84
74915;BMP280;63475;45.140;-75.616;2022-10-16T03:30:19;100465.31;;;7.82
74915;BMP280;63475;45.140;-75.616;2022-10-16T03:31:20;100466.81;;;7.80
74915;BMP280;63475;45.140;-75.616;2022-10-16T03:32:21;100461.94;;;7.82
74915;BMP280;63475;45.140;-75.616;2022-10-16T03:33:22;100460.44;;;7.77
74915;BMP280;63475;45.140;-75.616;2022-10-16T03:34:23;100468.31;;;7.74
74915;BMP280;63475;45.140;-75.616;2022-10-16T03:35:24;100470.19;;;7.73
74915;BMP280;63475;45.140;-75.616;2022-10-16T03:36:25;100469.03;;;7.67
74915;BMP280;63475;45.140;-75.616;2022-10-16T03:37:26;100475.03;;;7.68
74915;BMP280;63475;45.140;-75.616;2022-10-16T03:38:27;100473.91;;;7.65
74915;BMP280;63475;45.140;-75.616;2022-10-16T03:39:28;100470.50;;;7.61
74915;BMP280;63475;45.140;-75.616;2022-10-16T03:40:29;100476.16;;;7.63
74915;BMP280;63475;45.140;-75.616;2022-10-16T03:41:32;100470.47;;;7.57
74915;BMP280;63475;45.140;-75.616;2022-10-16T03:42:33;100474.22;;;7.56
74915;BMP280;63475;45.140;-75.616;2022-10-16T03:43:34;100482.50;;;7.55
74915;BMP280;63475;45.140;-75.616;2022-10-16T03:44:35;100472.31;;;7.50
74915;BMP280;63475;45.140;-75.616;2022-10-16T03:45:35;100477.56;;;7.50
74915;BMP280;63475;45.140;-75.616;2022-10-16T03:46:36;100479.06;;;7.47
74915;BMP280;63475;45.140;-75.616;2022-10-16T03:47:37;100474.56;;;7.44
74915;BMP280;63475;45.140;-75.616;2022-10-16T03:48:38;100471.53;;;7.42
74915;BMP280;63475;45.140;-75.616;2022-10-16T03:49:40;100483.19;;;7.41
74915;BMP280;63475;45.140;-75.616;2022-10-16T03:50:41;100480.16;;;7.39
74915;BMP280;63475;45.140;-75.616;2022-10-16T03:51:42;100482.75;;;7.36
74915;BMP280;63475;45.140;-75.616;2022-10-16T03:52:43;100481.63;;;7.33
74915;BMP280;63475;45.140;-75.616;2022-10-16T03:53:44;100476.00;;;7.31
74915;BMP280;63475;45.140;-75.616;2022-10-16T03:54:45;100481.63;;;7.30
74915;BMP280;63475;45.140;-75.616;2022-10-16T03:55:46;100493.66;;;7.31
74915;BMP280;63475;45.140;-75.616;2022-10-16T03:56:47;100485.00;;;7.30
74915;BMP280;63475;45.140;-75.616;2022-10-16T03:57:47;100484.56;;;7.24
74915;BMP280;63475;45.140;-75.616;2022-10-16T03:58:48;100481.56;;;7.26
74915;BMP280;63475;45.140;-75.616;2022-10-16T03:59:49;100481.19;;;7.24
74915;BMP280;63475;45.140;-75.616;2022-10-16T04:00:51;100493.16;;;7.21
74915;BMP280;63475;45.140;-75.616;2022-10-16T04:01:52;100483.00;;;7.13
74915;BMP280;63475;45.140;-75.616;2022-10-16T04:02:53;100483.38;;;7.15
74915;BMP280;63475;45.140;-75.616;2022-10-16T04:03:54;100478.84;;;7.08
74915;BMP280;63475;45.140;-75.616;2022-10-16T04:04:55;100479.19;;;7.03
74915;BMP280;63475;45.140;-75.616;2022-10-16T04:05:56;100491.97;;;7.05
74915;BMP280;63475;45.140;-75.616;2022-10-16T04:06:57;100488.91;;;6.99
74915;BMP280;63475;45.140;-75.616;2022-10-16T04:07:58;100491.56;;;7.03
74915;BMP280;63475;45.140;-75.616;2022-10-16T04:08:59;100491.91;;;6.98
74915;BMP280;63475;45.140;-75.616;2022-10-16T04:09:59;100487.75;;;6.97
74915;BMP280;63475;45.140;-75.616;2022-10-16T04:11:00;100496.41;;;6.97
74915;BMP280;63475;45.140;-75.616;2022-10-16T04:12:02;100495.66;;;6.97
74915;BMP280;63475;45.140;-75.616;2022-10-16T04:13:03;100491.91;;;6.94
74915;BMP280;63475;45.140;-75.616;2022-10-16T04:14:04;100492.59;;;6.91
74915;BMP280;63475;45.140;-75.616;2022-10-16T04:15:05;100497.81;;;6.87
74915;BMP280;63475;45.140;-75.616;2022-10-16T04:16:06;100485.78;;;6.83
74915;BMP280;63475;45.140;-75.616;2022-10-16T04:17:07;100491.81;;;6.87
74915;BMP280;63475;45.140;-75.616;2022-10-16T04:18:08;100500.78;;;6.86
74915;BMP280;63475;45.140;-75.616;2022-10-16T04:19:11;100499.28;;;6.85
74915;BMP280;63475;45.140;-75.616;2022-10-16T04:20:12;100493.66;;;6.83
74915;BMP280;63475;45.140;-75.616;2022-10-16T04:21:13;100501.16;;;6.84
74915;BMP280;63475;45.140;-75.616;2022-10-16T04:22:14;100492.91;;;6.86
74915;BMP280;63475;45.140;-75.616;2022-10-16T04:23:15;100489.16;;;6.87
74915;BMP280;63475;45.140;-75.616;2022-10-16T04:24:16;100491.03;;;6.86
74915;BMP280;63475;45.140;-75.616;2022-10-16T04:25:17;100495.53;;;6.86
74915;BMP280;63475;45.140;-75.616;2022-10-16T04:26:18;100494.41;;;6.83
74915;BMP280;63475;45.140;-75.616;2022-10-16T04:27:19;100489.88;;;6.80
74915;BMP280;63475;45.140;-75.616;2022-10-16T04:28:20;100497.41;;;6.82
74915;BMP280;63475;45.140;-75.616;2022-10-16T04:29:20;100498.94;;;6.86
74915;BMP280;63475;45.140;-75.616;2022-10-16T04:30:22;100491.78;;;6.83
74915;BMP280;63475;45.140;-75.616;2022-10-16T04:31:23;100485.75;;;6.79
74915;BMP280;63475;45.140;-75.616;2022-10-16T04:32:24;100487.63;;;6.79
74915;BMP280;63475;45.140;-75.616;2022-10-16T04:33:25;100495.09;;;6.77
74915;BMP280;63475;45.140;-75.616;2022-10-16T04:34:26;100490.22;;;6.75
74915;BMP280;63475;45.140;-75.616;2022-10-16T04:35:26;100487.94;;;6.70
74915;BMP280;63475;45.140;-75.616;2022-10-16T04:36:28;100498.44;;;6.74
74915;BMP280;63475;45.140;-75.616;2022-10-16T04:37:28;100495.47;;;6.75
74915;BMP280;63475;45.140;-75.616;2022-10-16T04:38:29;100498.81;;;6.72
74915;BMP280;63475;45.140;-75.616;2022-10-16T04:39:31;100496.22;;;6.76
74915;BMP280;63475;45.140;-75.616;2022-10-16T04:40:31;100500.72;;;6.75
74915;BMP280;63475;45.140;-75.616;2022-10-16T04:41:38;100498.50;;;6.77
74915;BMP280;63475;45.140;-75.616;2022-10-16T04:42:39;100501.13;;;6.77
74915;BMP280;63475;45.140;-75.616;2022-10-16T04:43:41;100495.47;;;6.75
74915;BMP280;63475;45.140;-75.616;2022-10-16T04:44:42;100493.97;;;6.74
74915;BMP280;63475;45.140;-75.616;2022-10-16T04:45:43;100489.09;;;6.76
74915;BMP280;63475;45.140;-75.616;2022-10-16T04:46:44;100483.81;;;6.69
74915;BMP280;63475;45.140;-75.616;2022-10-16T04:47:45;100492.78;;;6.68
74915;BMP280;63475;45.140;-75.616;2022-10-16T04:48:45;100497.31;;;6.71
74915;BMP280;63475;45.140;-75.616;2022-10-16T04:49:47;100492.81;;;6.72
74915;BMP280;63475;45.140;-75.616;2022-10-16T04:50:48;100486.03;;;6.71
74915;BMP280;63475;45.140;-75.616;2022-10-16T04:51:49;100489.06;;;6.69
74915;BMP280;63475;45.140;-75.616;2022-10-16T04:52:49;100492.44;;;6.70
74915;BMP280;63475;45.140;-75.616;2022-10-16T04:53:50;100488.66;;;6.67
74915;BMP280;63475;45.140;-75.616;2022-10-16T04:54:51;100484.56;;;6.70
74915;BMP280;63475;45.140;-75.616;2022-10-16T04:55:52;100490.56;;;6.70
74915;BMP280;63475;45.140;-75.616;2022-10-16T04:56:53;100493.56;;;6.72
74915;BMP280;63475;45.140;-75.616;2022-10-16T04:57:54;100488.66;;;6.71
74915;BMP280;63475;45.140;-75.616;2022-10-16T04:58:55;100488.69;;;6.74
74915;BMP280;63475;45.140;-75.616;2022-10-16T04:59:56;100488.69;;;6.74
74915;BMP280;63475;45.140;-75.616;2022-10-16T05:00:57;100484.22;;;6.75
74915;BMP280;63475;45.140;-75.616;2022-10-16T05:01:58;100490.22;;;6.75
74915;BMP280;63475;45.140;-75.616;2022-10-16T05:02:59;100480.44;;;6.72
74915;BMP280;63475;45.140;-75.616;2022-10-16T05:04:01;100468.38;;;6.64
74915;BMP280;63475;45.140;-75.616;2022-10-16T05:05:02;100484.97;;;6.75
74915;BMP280;63475;45.140;-75.616;2022-10-16T05:06:05;100491.38;;;6.78
74915;BMP280;63475;45.140;-75.616;2022-10-16T05:07:06;100495.50;;;6.79
74915;BMP280;63475;45.140;-75.616;2022-10-16T05:08:07;100489.50;;;6.78
74915;BMP280;63475;45.140;-75.616;2022-10-16T05:09:08;100486.91;;;6.82
74915;BMP280;63475;45.140;-75.616;2022-10-16T05:10:09;100488.38;;;6.79
74915;BMP280;63475;45.140;-75.616;2022-10-16T05:11:10;100485.75;;;6.79
74915;BMP280;63475;45.140;-75.616;2022-10-16T05:12:11;100491.38;;;6.78
74915;BMP280;63475;45.140;-75.616;2022-10-16T05:13:12;100491.75;;;6.80
74915;BMP280;63475;45.140;-75.616;2022-10-16T05:14:12;100484.97;;;6.75
74915;BMP280;63475;45.140;-75.616;2022-10-16T05:15:13;100496.97;;;6.76
74915;BMP280;63475;45.140;-75.616;2022-10-16T05:16:14;100498.50;;;6.77
74915;BMP280;63475;45.140;-75.616;2022-10-16T05:17:15;100493.22;;;6.77
74915;BMP280;63475;45.140;-75.616;2022-10-16T05:18:17;100491.31;;;6.74
74915;BMP280;63475;45.140;-75.616;2022-10-16T05:19:18;100496.25;;;6.79
74915;BMP280;63475;45.140;-75.616;2022-10-16T05:20:19;100499.25;;;6.78
74915;BMP280;63475;45.140;-75.616;2022-10-16T05:21:20;100499.97;;;6.75
74915;BMP280;63475;45.140;-75.616;2022-10-16T05:22:21;100493.19;;;6.74
74915;BMP280;63475;45.140;-75.616;2022-10-16T05:23:22;100494.69;;;6.71
74915;BMP280;63475;45.140;-75.616;2022-10-16T05:24:23;100495.44;;;6.72
74915;BMP280;63475;45.140;-75.616;2022-10-16T05:25:24;100487.19;;;6.70
74915;BMP280;63475;45.140;-75.616;2022-10-16T05:26:25;100494.69;;;6.71
74915;BMP280;63475;45.140;-75.616;2022-10-16T05:27:25;100500.69;;;6.72
74915;BMP280;63475;45.140;-75.616;2022-10-16T05:28:29;100497.69;;;6.73
74915;BMP280;63475;45.140;-75.616;2022-10-16T05:29:30;100493.19;;;6.70
74915;BMP280;63475;45.140;-75.616;2022-10-16T05:30:31;100492.78;;;6.68
74915;BMP280;63475;45.140;-75.616;2022-10-16T05:31:32;100498.81;;;6.72
74915;BMP280;63475;45.140;-75.616;2022-10-16T05:32:33;100489.78;;;6.66
74915;BMP280;63475;45.140;-75.616;2022-10-16T05:33:34;100498.44;;;6.70
74915;BMP280;63475;45.140;-75.616;2022-10-16T05:34:35;100498.06;;;6.68
74915;BMP280;63475;45.140;-75.616;2022-10-16T05:35:36;100493.16;;;6.67
74915;BMP280;63475;45.140;-75.616;2022-10-16T05:36:37;100493.91;;;6.67
74915;BMP280;63475;45.140;-75.616;2022-10-16T05:37:38;100496.16;;;6.65
74915;BMP280;63475;45.140;-75.616;2022-10-16T05:38:39;100502.91;;;6.66
74915;BMP280;63475;45.140;-75.616;2022-10-16T05:39:40;100499.53;;;6.66
74915;BMP280;63475;45.140;-75.616;2022-10-16T05:40:41;100495.34;;;6.61
74915;BMP280;63475;45.140;-75.616;2022-10-16T05:41:43;100493.09;;;6.60
74915;BMP280;63475;45.140;-75.616;2022-10-16T05:42:43;100490.75;;;6.51
74915;BMP280;63475;45.140;-75.616;2022-10-16T05:43:44;100500.88;;;6.52
74915;BMP280;63475;45.140;-75.616;2022-10-16T05:44:45;100483.56;;;6.44
74915;BMP280;63475;45.140;-75.616;2022-10-16T05:46:03;100491.47;;;6.48
74915;BMP280;63475;45.140;-75.616;2022-10-16T05:47:05;100492.16;;;6.41
74915;BMP280;63475;45.140;-75.616;2022-10-16T05:48:05;100489.91;;;6.40
74915;BMP280;63475;45.140;-75.616;2022-10-16T05:49:07;100492.84;;;6.35
74915;BMP280;63475;45.140;-75.616;2022-10-16T05:50:08;100495.84;;;6.37
74915;BMP280;63475;45.140;-75.616;2022-10-16T05:51:11;100491.31;;;6.34
74915;BMP280;63475;45.140;-75.616;2022-10-16T05:52:12;100498.78;;;6.28
74915;BMP280;63475;45.140;-75.616;2022-10-16T05:53:12;100501.81;;;6.30
74915;BMP280;63475;45.140;-75.616;2022-10-16T05:54:13;100498.44;;;6.30
74915;BMP280;63475;45.140;-75.616;2022-10-16T05:55:14;100493.50;;;6.25
74915;BMP280;63475;45.140;-75.616;2022-10-16T05:56:16;100498.78;;;6.28
74915;BMP280;63475;45.140;-75.616;2022-10-16T05:57:16;100497.28;;;6.27
74915;BMP280;63475;45.140;-75.616;2022-10-16T05:58:17;100504.38;;;6.27
74915;BMP280;63475;45.140;-75.616;2022-10-16T05:59:18;100495.38;;;6.24
74915;BMP280;63475;45.140;-75.616;2022-10-16T06:00:19;100490.44;;;6.22
74915;BMP280;63475;45.140;-75.616;2022-10-16T06:01:20;100501.00;;;6.26
74915;BMP280;63475;45.140;-75.616;2022-10-16T06:02:24;100502.44;;;6.23
74915;BMP280;63475;45.140;-75.616;2022-10-16T06:03:26;100505.06;;;6.23
74915;BMP280;63475;45.140;-75.616;2022-10-16T06:04:27;100497.19;;;6.23